createdAt,value
2023-03-29T05:03:05.493Z,25.00
2023-03-29T05:04:06.511Z,25.00
2023-03-29T05:05:05.474Z,25.00
2023-03-29T05:06:06.514Z,25.00
2023-03-29T05:07:06.558Z,25.00
2023-03-29T05:08:06.567Z,25.00
2023-03-29T05:09:06.569Z,0.00
2023-03-29T05:10:06.593Z,0.00
2023-03-29T05:11:06.639Z,0.00
2023-03-29T05:12:06.692Z,0.00
2023-03-29T05:16:05.877Z,0.00
2023-03-29T05:17:06.876Z,0.00
2023-03-29T05:18:06.953Z,0.00
2023-03-29T05:19:06.954Z,0.00
2023-03-29T05:25:06.078Z,7.29
2023-03-29T05:26:07.075Z,26.40
2023-03-29T05:27:07.096Z,25.00
2023-03-29T05:30:06.133Z,28.08
2023-03-29T05:31:06.411Z,29.74
2023-03-29T05:32:07.343Z,25.00
2023-03-29T05:33:07.207Z,25.00
2023-03-29T05:34:07.195Z,25.04
2023-03-29T05:35:07.244Z,24.81
2023-03-29T05:36:07.261Z,25.52
2023-03-29T05:37:07.255Z,25.00
2023-03-29T05:38:07.281Z,28.85
2023-03-29T05:39:07.318Z,25.18
2023-03-29T05:40:07.307Z,25.00
2023-03-29T05:44:06.369Z,28.54
2023-03-29T05:45:07.377Z,27.05
2023-03-29T05:46:07.473Z,25.84
2023-03-29T05:47:07.417Z,25.00
2023-03-29T05:48:07.479Z,28.95
2023-03-29T05:52:06.472Z,31.94
2023-03-29T05:53:06.484Z,28.41
2023-03-29T05:54:07.498Z,28.41
2023-03-29T05:55:07.522Z,26.96
2023-03-29T05:56:07.543Z,29.47
2023-03-29T05:57:07.891Z,27.10
2023-03-29T06:01:06.588Z,29.72
2023-03-29T06:02:07.895Z,28.13
2023-03-29T06:03:18.028Z,30.13
2023-03-29T06:07:06.615Z,23.57
2023-03-29T06:08:08.310Z,22.52
2023-03-29T06:09:07.577Z,26.46
2023-03-29T06:10:07.574Z,26.25
2023-03-29T06:11:07.934Z,25.27
2023-03-29T06:15:06.523Z,26.53
2023-03-29T06:16:07.548Z,30.86
2023-03-29T06:17:07.558Z,29.08
2023-03-29T06:20:06.530Z,32.10
2023-03-29T06:21:07.491Z,31.00
2023-03-29T06:22:07.537Z,30.87
2023-03-29T06:23:07.502Z,30.14
2023-03-29T06:24:07.461Z,33.26
2023-03-29T06:25:07.466Z,30.05
2023-03-29T06:28:06.466Z,38.12
2023-03-29T06:31:06.738Z,35.83
2023-03-29T06:32:07.435Z,36.53
2023-03-29T06:35:06.409Z,40.67
2023-03-29T06:36:07.439Z,39.99
2023-03-29T06:38:06.376Z,42.11
2023-03-29T06:39:07.406Z,45.46
2023-03-29T06:40:07.388Z,43.23
2023-03-29T06:41:07.421Z,43.65
2023-03-29T06:42:20.016Z,47.27
2023-03-29T06:45:06.336Z,49.67
2023-03-29T06:46:07.360Z,51.19
2023-03-29T06:47:07.312Z,58.54
2023-03-29T06:48:06.377Z,56.12
2023-03-29T06:49:07.309Z,55.63
2023-03-29T06:51:06.273Z,54.86
2023-03-29T06:52:07.345Z,58.97
2023-03-29T06:53:07.271Z,60.24
2023-03-29T06:59:06.227Z,64.29
2023-03-29T07:00:07.224Z,67.57
2023-03-29T07:01:07.251Z,69.54
2023-03-29T07:04:06.217Z,69.61
2023-03-29T07:05:06.180Z,65.94
2023-03-29T07:06:06.186Z,73.32
2023-03-29T07:07:07.165Z,71.98
2023-03-29T07:09:06.154Z,74.65
2023-03-29T07:10:07.152Z,74.41
2023-03-29T07:11:07.183Z,76.11
2023-03-29T07:12:07.119Z,77.94
2023-03-29T07:13:07.126Z,76.42
2023-03-29T07:14:07.150Z,79.23
2023-03-29T07:18:06.167Z,85.45
2023-03-29T07:19:06.152Z,87.26
2023-03-29T07:20:07.091Z,85.44
2023-03-29T07:21:07.129Z,87.76
2023-03-29T07:23:06.040Z,93.93
2023-03-29T07:24:07.050Z,92.63
2023-03-29T07:26:06.034Z,97.77
2023-03-29T07:27:07.038Z,98.57
2023-03-29T07:28:07.043Z,98.98
2023-03-29T07:29:07.105Z,99.31
2023-03-29T07:30:07.130Z,100.29
2023-03-29T07:31:07.210Z,101.65
2023-03-29T07:32:07.250Z,104.16
2023-03-29T07:33:07.396Z,107.32
2023-03-29T07:34:06.335Z,105.71
2023-03-29T07:35:07.369Z,107.81
2023-03-29T07:36:06.492Z,111.18
2023-03-29T07:37:07.473Z,113.86
2023-03-29T07:38:07.487Z,116.44
2023-03-29T07:39:07.524Z,113.70
2023-03-29T07:40:07.581Z,117.22
2023-03-29T07:41:07.627Z,113.35
2023-03-29T07:42:07.684Z,114.62
2023-03-29T07:43:07.757Z,118.06
2023-03-29T07:44:07.735Z,119.35
2023-03-29T07:45:07.764Z,120.69
2023-03-29T07:46:07.802Z,119.76
2023-03-29T07:48:06.933Z,120.97
2023-03-29T07:49:07.813Z,121.90
2023-03-29T07:50:07.844Z,124.71
2023-03-29T07:51:07.860Z,126.40
2023-03-29T07:52:08.363Z,123.12
2023-03-29T07:54:06.854Z,125.90
2023-03-29T07:55:07.874Z,127.81
2023-03-29T07:58:06.871Z,134.04
2023-03-29T07:59:06.922Z,141.19
2023-03-29T08:00:07.956Z,141.92
2023-03-29T08:01:07.329Z,140.09
2023-03-29T08:02:08.003Z,141.76
2023-03-29T08:03:07.160Z,140.44
2023-03-29T08:04:08.306Z,139.93
2023-03-29T08:05:08.240Z,154.00
2023-03-29T08:06:08.226Z,153.17
2023-03-29T08:07:08.245Z,153.92
2023-03-29T08:08:08.324Z,154.88
2023-03-29T08:09:08.357Z,150.51
2023-03-29T08:10:08.430Z,153.86
2023-03-29T08:12:07.516Z,153.58
2023-03-29T08:13:08.590Z,151.35
2023-03-29T08:14:08.644Z,153.36
2023-03-29T08:15:08.690Z,152.14
2023-03-29T08:16:08.728Z,156.58
2023-03-29T08:17:08.835Z,155.56
2023-03-29T08:18:08.871Z,156.30
2023-03-29T08:19:08.900Z,158.51
2023-03-29T08:20:08.963Z,158.42
2023-03-29T08:21:09.030Z,160.29
2023-03-29T08:22:09.047Z,140.73
2023-03-29T08:23:09.064Z,155.99
2023-03-29T08:26:08.875Z,142.94
2023-03-29T08:27:09.097Z,84.97
2023-03-29T08:29:08.113Z,99.33
2023-03-29T08:30:09.149Z,100.65
2023-03-29T08:32:08.103Z,95.71
2023-03-29T08:33:09.153Z,94.20
2023-03-29T08:36:08.202Z,96.92
2023-03-29T08:37:09.184Z,74.35
2023-03-29T08:39:08.201Z,97.65
2023-03-29T08:40:09.235Z,58.66
2023-03-29T08:41:09.239Z,14.78
2023-03-29T08:42:09.243Z,47.56
2023-03-29T08:43:09.367Z,151.49
2023-03-29T08:44:09.294Z,87.96
2023-03-29T08:45:09.321Z,129.72
2023-03-29T08:46:09.423Z,141.62
2023-03-29T08:47:09.351Z,109.34
2023-03-29T08:48:09.359Z,67.48
2023-03-29T08:49:09.352Z,125.66
2023-03-29T08:50:09.351Z,76.48
2023-03-29T08:51:10.175Z,110.32
2023-03-29T08:52:09.405Z,133.36
2023-03-29T08:53:09.464Z,62.65
2023-03-29T08:54:09.461Z,78.29
2023-03-29T08:55:09.481Z,110.37
2023-03-29T08:56:09.507Z,113.80
2023-03-29T08:57:09.538Z,7.23
2023-03-29T08:59:08.589Z,126.57
2023-03-29T09:00:09.624Z,132.03
2023-03-29T09:01:09.648Z,131.12
2023-03-29T09:02:09.807Z,131.89
2023-03-29T09:03:09.801Z,130.49
2023-03-29T09:04:09.919Z,136.84
2023-03-29T09:07:08.780Z,163.57
2023-03-29T09:08:09.833Z,162.44
2023-03-29T09:09:08.895Z,156.40
2023-03-29T09:10:08.947Z,154.52
2023-03-29T09:11:09.979Z,162.13
2023-03-29T09:12:09.995Z,167.29
2023-03-29T09:13:10.042Z,165.94
2023-03-29T09:14:09.041Z,169.85
2023-03-29T09:15:10.075Z,176.53
2023-03-29T09:16:10.128Z,180.84
2023-03-29T09:21:09.090Z,194.48
2023-03-29T09:22:09.146Z,197.33
2023-03-29T09:23:09.215Z,196.25
2023-03-29T09:24:10.258Z,201.30
2023-03-29T09:25:09.328Z,204.67
2023-03-29T09:26:10.377Z,210.74
2023-03-29T09:27:10.425Z,212.38
2023-03-29T09:28:10.498Z,219.79
2023-03-29T09:29:10.547Z,219.43
2023-03-29T09:30:10.571Z,219.38
2023-03-29T09:31:10.648Z,221.09
2023-03-29T09:32:10.664Z,221.49
2023-03-29T09:33:10.783Z,224.73
2023-03-29T09:37:09.938Z,233.99
2023-03-29T09:38:10.994Z,236.24
2023-03-29T09:39:11.023Z,240.30
2023-03-29T09:40:11.044Z,238.50
2023-03-29T09:41:11.092Z,242.95
2023-03-29T09:43:10.095Z,240.18
2023-03-29T09:44:20.802Z,238.48
2023-03-29T09:45:11.118Z,238.64
2023-03-29T09:47:10.116Z,236.33
2023-03-29T09:48:10.470Z,233.96
2023-03-29T09:49:11.153Z,225.82
2023-03-29T09:50:16.826Z,228.39
2023-03-29T09:51:11.080Z,228.57
2023-03-29T09:54:10.077Z,220.13
2023-03-29T09:57:10.086Z,212.30
2023-03-29T09:58:11.027Z,209.41
2023-03-29T09:59:10.031Z,207.67
2023-03-29T10:00:11.017Z,204.64
2023-03-29T10:01:11.042Z,203.30
2023-03-29T10:02:11.149Z,202.92
2023-03-29T10:06:10.311Z,197.22
2023-03-29T10:07:10.348Z,196.29
2023-03-29T10:08:11.416Z,195.29
2023-03-29T10:09:11.450Z,197.54
2023-03-29T10:10:11.523Z,193.44
2023-03-29T10:11:11.581Z,193.07
2023-03-29T10:12:11.633Z,189.45
2023-03-29T10:13:11.728Z,189.58
2023-03-29T10:14:11.741Z,188.47
2023-03-29T10:15:19.635Z,189.02
2023-03-29T10:16:11.828Z,189.30
2023-03-29T10:18:10.826Z,189.39
2023-03-29T10:19:11.748Z,188.58
2023-03-29T10:20:11.751Z,185.74
2023-03-29T10:21:11.768Z,186.28
2023-03-29T10:22:10.731Z,185.63
2023-03-29T10:24:10.722Z,184.55
2023-03-29T10:25:11.701Z,184.31
2023-03-29T10:26:11.715Z,182.62
2023-03-29T10:30:10.665Z,182.50
2023-03-29T10:31:11.668Z,177.47
2023-03-29T10:32:11.675Z,180.76
2023-03-29T10:33:11.688Z,179.45
2023-03-29T10:34:11.663Z,181.99
2023-03-29T10:35:11.629Z,180.10
2023-03-29T10:38:10.623Z,178.19
2023-03-29T10:39:11.615Z,181.23
2023-03-29T10:40:11.605Z,175.73
2023-03-29T10:41:11.652Z,180.13
2023-03-29T10:43:10.760Z,178.33
2023-03-29T10:44:11.933Z,172.98
2023-03-29T10:45:10.873Z,177.83
2023-03-29T10:46:11.954Z,174.44
2023-03-29T10:47:11.977Z,173.08
2023-03-29T10:48:12.030Z,176.77
2023-03-29T10:49:12.098Z,172.14
2023-03-29T10:50:12.158Z,173.81
2023-03-29T10:51:12.208Z,175.47
2023-03-29T10:52:12.285Z,173.98
2023-03-29T10:53:12.357Z,174.16
2023-03-29T10:54:12.410Z,169.32
2023-03-29T10:55:12.428Z,172.72
2023-03-29T10:56:12.486Z,175.72
2023-03-29T10:57:12.611Z,171.92
2023-03-29T10:58:12.587Z,170.67
2023-03-29T10:59:12.638Z,169.60
2023-03-29T11:00:12.726Z,171.58
2023-03-29T11:01:12.803Z,170.72
2023-03-29T11:02:12.896Z,173.32
2023-03-29T11:03:15.801Z,170.02
2023-03-29T11:06:11.816Z,170.36
2023-03-29T11:07:12.801Z,171.60
2023-03-29T11:08:12.800Z,170.94
2023-03-29T11:09:12.802Z,169.24
2023-03-29T11:10:11.778Z,171.17
2023-03-29T11:11:12.759Z,167.98
2023-03-29T11:12:16.210Z,168.90
2023-03-29T11:14:11.767Z,168.18
2023-03-29T11:15:12.772Z,169.23
2023-03-29T11:17:11.720Z,171.65
2023-03-29T11:18:12.717Z,167.88
2023-03-29T11:19:11.717Z,169.19
2023-03-29T11:20:12.881Z,166.51
2023-03-29T11:24:14.711Z,168.57
2023-03-29T11:25:12.751Z,167.88
2023-03-29T11:30:11.669Z,167.10
2023-03-29T11:31:12.671Z,168.37
2023-03-29T11:32:12.667Z,165.82
2023-03-29T11:33:12.658Z,165.58
2023-03-29T11:35:11.628Z,166.38
2023-03-29T11:36:12.671Z,166.89
2023-03-29T11:37:12.625Z,165.83
2023-03-29T11:40:11.621Z,164.68
2023-03-29T11:41:12.610Z,165.29
2023-03-29T11:42:12.572Z,164.69
2023-03-29T11:43:12.565Z,165.93
2023-03-29T11:44:12.592Z,164.73
2023-03-29T11:46:11.550Z,165.17
2023-03-29T11:47:12.533Z,162.31
2023-03-29T11:48:12.537Z,163.31
2023-03-29T11:49:12.535Z,162.00
2023-03-29T11:50:11.533Z,162.60
2023-03-29T11:51:12.509Z,163.68
2023-03-29T11:55:11.588Z,162.47
2023-03-29T11:56:12.632Z,160.95
2023-03-29T11:57:12.749Z,160.29
2023-03-29T11:58:12.719Z,162.03
2023-03-29T11:59:12.777Z,161.34
2023-03-29T12:00:12.822Z,158.65
2023-03-29T12:01:12.865Z,159.44
2023-03-29T12:03:12.088Z,157.26
2023-03-29T12:04:13.126Z,160.38
2023-03-29T12:05:13.115Z,158.15
2023-03-29T12:06:13.176Z,158.43
2023-03-29T12:07:13.233Z,157.79
2023-03-29T12:08:13.302Z,156.06
2023-03-29T12:09:16.189Z,155.25
2023-03-29T12:10:13.362Z,155.52
2023-03-29T12:15:12.320Z,156.33
2023-03-29T12:16:13.347Z,155.79
2023-03-29T12:17:12.295Z,154.07
2023-03-29T12:18:13.285Z,153.60
2023-03-29T12:21:12.279Z,152.48
2023-03-29T12:22:13.255Z,151.81
2023-03-29T12:23:13.267Z,153.63
2023-03-29T12:28:12.319Z,153.23
2023-03-29T12:29:13.403Z,152.91
2023-03-29T12:30:13.449Z,151.39
2023-03-29T12:31:13.510Z,150.87
2023-03-29T12:32:13.574Z,151.46
2023-03-29T12:33:15.804Z,150.96
2023-03-29T12:37:12.599Z,150.26
2023-03-29T12:38:13.597Z,149.84
2023-03-29T12:42:12.581Z,153.93
2023-03-29T12:43:13.547Z,155.63
2023-03-29T12:44:13.551Z,165.57
2023-03-29T12:46:12.551Z,451.47
2023-03-29T12:47:13.523Z,463.05
2023-03-29T12:49:12.508Z,416.91
2023-03-29T12:50:13.506Z,409.29
2023-03-29T12:54:12.490Z,346.14
2023-03-29T12:55:13.478Z,327.30
2023-03-29T13:00:12.693Z,254.65
2023-03-29T13:01:13.854Z,248.97
2023-03-29T13:02:13.955Z,249.95
2023-03-29T13:03:14.464Z,249.82
2023-03-29T13:06:13.077Z,248.22
2023-03-29T13:10:13.094Z,249.28
2023-03-29T13:11:14.096Z,249.89
2023-03-29T13:12:13.133Z,248.14
2023-03-29T13:13:14.076Z,247.35
2023-03-29T13:14:14.081Z,249.87
2023-03-29T13:19:13.057Z,247.47
2023-03-29T13:20:14.024Z,246.78
2023-03-29T13:22:13.006Z,248.19
2023-03-29T13:23:16.956Z,246.40
2023-03-29T13:24:14.034Z,246.42
2023-03-29T13:29:12.954Z,245.24
2023-03-29T13:30:13.954Z,245.20
2023-03-29T13:32:12.929Z,245.22
2023-03-29T13:33:13.946Z,243.26
2023-03-29T13:35:12.918Z,241.07
2023-03-29T13:36:13.945Z,242.77
2023-03-29T13:37:12.918Z,241.20
2023-03-29T13:38:12.925Z,242.43
2023-03-29T13:41:12.984Z,242.10
2023-03-29T13:42:13.000Z,242.06
2023-03-29T13:43:14.035Z,239.90
2023-03-29T13:44:14.076Z,240.09
2023-03-29T13:45:14.106Z,238.41
2023-03-29T13:46:14.166Z,237.99
2023-03-29T13:47:13.182Z,238.23
2023-03-29T13:48:14.312Z,244.16
2023-03-29T13:49:14.380Z,249.22
2023-03-29T13:50:14.369Z,249.93
2023-03-29T13:51:14.431Z,248.91
2023-03-29T13:52:14.483Z,249.09
2023-03-29T13:53:14.541Z,248.27
2023-03-29T13:54:14.617Z,246.15
2023-03-29T13:55:14.682Z,245.08
2023-03-29T13:56:14.729Z,242.31
2023-03-29T13:57:14.873Z,241.21
2023-03-29T13:58:14.860Z,239.97
2023-03-29T13:59:14.922Z,238.50
2023-03-29T14:00:14.975Z,237.14
2023-03-29T14:01:14.052Z,235.65
2023-03-29T14:02:15.092Z,234.04
2023-03-29T14:04:14.201Z,231.39
2023-03-29T14:05:15.307Z,229.06
2023-03-29T14:06:15.321Z,228.00
2023-03-29T14:07:15.369Z,227.12
2023-03-29T14:09:14.510Z,225.04
2023-03-29T14:10:14.535Z,223.50
2023-03-29T14:11:15.575Z,222.81
2023-03-29T14:12:15.605Z,221.28
2023-03-29T14:13:15.649Z,219.37
2023-03-29T14:14:15.692Z,218.39
2023-03-29T14:15:15.778Z,217.16
2023-03-29T14:18:14.927Z,212.73
2023-03-29T14:19:15.925Z,210.60
2023-03-29T14:20:15.966Z,209.90
2023-03-29T14:21:16.039Z,208.17
2023-03-29T14:24:15.112Z,205.05
2023-03-29T14:25:15.191Z,203.67
2023-03-29T14:26:16.248Z,202.70
2023-03-29T14:28:15.297Z,201.21
2023-03-29T14:29:16.324Z,200.20
2023-03-29T14:34:15.456Z,195.35
2023-03-29T14:35:16.510Z,194.28
2023-03-29T14:36:16.610Z,193.71
2023-03-29T14:42:15.719Z,188.29
2023-03-29T14:43:15.703Z,187.18
2023-03-29T14:44:16.714Z,186.22
2023-03-29T14:45:16.760Z,184.48
2023-03-29T14:46:16.791Z,184.98
2023-03-29T14:47:16.750Z,184.69
2023-03-29T14:48:16.800Z,182.54
2023-03-29T14:49:16.814Z,181.06
2023-03-29T14:50:16.782Z,179.65
2023-03-29T14:51:16.754Z,179.52
2023-03-29T14:52:16.757Z,179.09
2023-03-29T14:53:16.789Z,178.58
2023-03-29T14:59:15.774Z,172.80
2023-03-29T15:00:16.800Z,171.85
2023-03-29T15:01:16.844Z,170.78
2023-03-29T15:02:16.813Z,169.01
2023-03-29T15:04:15.780Z,167.80
2023-03-29T15:05:15.788Z,167.18
2023-03-29T15:06:16.784Z,165.42
2023-03-29T15:09:15.814Z,163.87
2023-03-29T15:10:16.757Z,162.18
2023-03-29T15:11:16.776Z,162.77
2023-03-29T15:12:15.750Z,160.88
2023-03-29T15:13:16.764Z,160.28
2023-03-29T15:14:16.808Z,160.44
2023-03-29T15:17:15.793Z,154.55
2023-03-29T15:18:16.846Z,152.18
2023-03-29T15:19:16.802Z,153.49
2023-03-29T15:20:16.809Z,151.04
2023-03-29T15:21:18.170Z,150.13
2023-03-29T15:22:15.788Z,149.93
2023-03-29T15:23:16.824Z,149.84
2023-03-29T15:24:16.804Z,148.89
2023-03-29T15:25:16.838Z,146.98
2023-03-29T15:27:15.827Z,144.58
2023-03-29T15:28:16.814Z,142.92
2023-03-29T15:29:16.839Z,143.16
